sensor_id;sensor_type;location;lat;lon;timestamp;pressure;altitude;pressure_sealevel;temperature;humidity
13367;BME280;6752;52.612;13.630;2023-01-28T00:04:13;102058.48;;;-1.21;100.00
13367;BME280;6752;52.612;13.630;2023-01-28T00:09:15;102057.03;;;-1.31;100.00
13367;BME280;6752;52.612;13.630;2023-01-28T00:14:17;102062.72;;;-1.36;100.00
13367;BME280;6752;52.612;13.630;2023-01-28T00:19:20;102070.91;;;-1.51;100.00
13367;BME280;6752;52.612;13.630;2023-01-28T00:24:22;102076.18;;;-1.62;100.00
13367;BME280;6752;52.612;13.630;2023-01-28T00:29:25;102076.31;;;-1.51;100.00
13367;BME280;6752;52.612;13.630;2023-01-28T00:34:27;102074.18;;;-1.53;100.00
13367;BME280;6752;52.612;13.630;2023-01-28T00:39:29;102078.51;;;-1.51;100.00
13367;BME280;6752;52.612;13.630;2023-01-28T00:44:32;102076.41;;;-1.47;100.00
13367;BME280;6752;52.612;13.630;2023-01-28T00:49:34;102075.97;;;-1.65;100.00
13367;BME280;6752;52.612;13.630;2023-01-28T00:54:36;102089.80;;;-1.72;100.00
13367;BME280;6752;52.612;13.630;2023-01-28T00:59:39;102089.22;;;-1.76;100.00
13367;BME280;6752;52.612;13.630;2023-01-28T01:04:41;102088.20;;;-1.75;100.00
13367;BME280;6752;52.612;13.630;2023-01-28T01:09:43;102086.38;;;-1.74;100.00
13367;BME280;6752;52.612;13.630;2023-01-28T01:14:46;102082.06;;;-1.63;100.00
13367;BME280;6752;52.612;13.630;2023-01-28T01:19:48;102083.59;;;-1.53;100.00
13367;BME280;6752;52.612;13.630;2023-01-28T01:24:50;102074.33;;;-1.36;100.00
13367;BME280;6752;52.612;13.630;2023-01-28T01:29:53;102082.85;;;-1.25;100.00
13367;BME280;6752;52.612;13.630;2023-01-28T01:34:55;102085.45;;;-1.11;100.00
13367;BME280;6752;52.612;13.630;2023-01-28T01:39:58;102090.56;;;-1.02;100.00
13367;BME280;6752;52.612;13.630;2023-01-28T01:45:07;102084.27;;;-0.95;100.00
13367;BME280;6752;52.612;13.630;2023-01-28T01:50:11;102092.09;;;-0.92;100.00
13367;BME280;6752;52.612;13.630;2023-01-28T01:55:15;102095.77;;;-0.87;100.00
13367;BME280;6752;52.612;13.630;2023-01-28T02:00:13;102091.47;;;-0.84;100.00
13367;BME280;6752;52.612;13.630;2023-01-28T02:05:17;102093.69;;;-0.78;100.00
13367;BME280;6752;52.612;13.630;2023-01-28T02:10:17;102096.71;;;-0.82;100.00
13367;BME280;6752;52.612;13.630;2023-01-28T02:15:21;102093.09;;;-0.69;100.00
13367;BME280;6752;52.612;13.630;2023-01-28T02:20:29;102087.13;;;-0.67;100.00
13367;BME280;6752;52.612;13.630;2023-01-28T02:30:48;102088.36;;;-0.66;100.00
13367;BME280;6752;52.612;13.630;2023-01-28T02:35:52;102090.38;;;-0.63;100.00
13367;BME280;6752;52.612;13.630;2023-01-28T02:40:53;102097.81;;;-0.61;100.00
13367;BME280;6752;52.612;13.630;2023-01-28T02:46:19;102092.14;;;-0.63;100.00
13367;BME280;6752;52.612;13.630;2023-01-28T02:57:05;102100.63;;;-0.57;100.00
13367;BME280;6752;52.612;13.630;2023-01-28T03:07:09;102095.45;;;-0.47;100.00
13367;BME280;6752;52.612;13.630;2023-01-28T03:12:13;102099.47;;;-0.47;100.00
13367;BME280;6752;52.612;13.630;2023-01-28T03:17:35;102088.79;;;-0.36;100.00
13367;BME280;6752;52.612;13.630;2023-01-28T03:23:02;102102.92;;;-0.34;100.00
13367;BME280;6752;52.612;13.630;2023-01-28T03:28:22;102103.84;;;-0.34;100.00
13367;BME280;6752;52.612;13.630;2023-01-28T03:33:43;102097.56;;;-0.34;100.00
13367;BME280;6752;52.612;13.630;2023-01-28T03:39:03;102099.41;;;-0.29;100.00
13367;BME280;6752;52.612;13.630;2023-01-28T03:44:06;102093.61;;;-0.23;100.00
13367;BME280;6752;52.612;13.630;2023-01-28T03:49:27;102095.30;;;-0.39;100.00
13367;BME280;6752;52.612;13.630;2023-01-28T03:54:29;102098.20;;;-0.25;100.00
13367;BME280;6752;52.612;13.630;2023-01-28T03:59:32;102097.56;;;-0.22;100.00
13367;BME280;6752;52.612;13.630;2023-01-28T04:04:34;102088.69;;;-0.17;100.00
13367;BME280;6752;52.612;13.630;2023-01-28T04:09:36;102090.20;;;-0.19;100.00
13367;BME280;6752;52.612;13.630;2023-01-28T04:14:39;102086.25;;;-0.14;100.00
13367;BME280;6752;52.612;13.630;2023-01-28T04:19:41;102087.11;;;-0.14;100.00
13367;BME280;6752;52.612;13.630;2023-01-28T04:24:44;102089.07;;;-0.05;100.00
13367;BME280;6752;52.612;13.630;2023-01-28T04:29:46;102093.02;;;0.03;100.00
13367;BME280;6752;52.612;13.630;2023-01-28T04:34:48;102098.75;;;-0.08;100.00
13367;BME280;6752;52.612;13.630;2023-01-28T04:39:51;102091.73;;;0.02;100.00
13367;BME280;6752;52.612;13.630;2023-01-28T04:44:53;102093.63;;;0.01;100.00
13367;BME280;6752;52.612;13.630;2023-01-28T04:49:58;102091.84;;;0.00;100.00
13367;BME280;6752;52.612;13.630;2023-01-28T04:55:00;102088.22;;;-0.05;100.00
13367;BME280;6752;52.612;13.630;2023-01-28T05:00:02;102091.99;;;-0.08;100.00
13367;BME280;6752;52.612;13.630;2023-01-28T05:05:05;102099.41;;;0.01;100.00
13367;BME280;6752;52.612;13.630;2023-01-28T05:10:07;102092.16;;;0.08;100.00
13367;BME280;6752;52.612;13.630;2023-01-28T05:15:09;102104.34;;;0.01;100.00
13367;BME280;6752;52.612;13.630;2023-01-28T05:20:12;102111.78;;;0.08;100.00
13367;BME280;6752;52.612;13.630;2023-01-28T05:25:14;102119.58;;;0.00;100.00
13367;BME280;6752;52.612;13.630;2023-01-28T05:30:17;102118.78;;;0.04;100.00
13367;BME280;6752;52.612;13.630;2023-01-28T05:35:19;102121.36;;;0.11;100.00
13367;BME280;6752;52.612;13.630;2023-01-28T05:40:21;102114.53;;;0.07;100.00
13367;BME280;6752;52.612;13.630;2023-01-28T05:45:24;102115.08;;;0.12;100.00
13367;BME280;6752;52.612;13.630;2023-01-28T05:50:26;102109.84;;;0.10;100.00
13367;BME280;6752;52.612;13.630;2023-01-28T05:55:28;102116.05;;;0.11;100.00
13367;BME280;6752;52.612;13.630;2023-01-28T06:00:31;102118.56;;;0.13;100.00
13367;BME280;6752;52.612;13.630;2023-01-28T06:05:33;102115.52;;;0.18;100.00
13367;BME280;6752;52.612;13.630;2023-01-28T06:10:36;102119.23;;;0.16;100.00
13367;BME280;6752;52.612;13.630;2023-01-28T06:15:38;102114.17;;;0.18;100.00
13367;BME280;6752;52.612;13.630;2023-01-28T06:20:40;102122.16;;;0.18;100.00
13367;BME280;6752;52.612;13.630;2023-01-28T06:25:43;102126.13;;;0.19;100.00
13367;BME280;6752;52.612;13.630;2023-01-28T06:30:48;102126.91;;;0.15;100.00
13367;BME280;6752;52.612;13.630;2023-01-28T06:35:50;102121.98;;;0.21;100.00
13367;BME280;6752;52.612;13.630;2023-01-28T06:40:53;102126.00;;;0.21;100.00
13367;BME280;6752;52.612;13.630;2023-01-28T06:45:59;102131.67;;;0.22;100.00
13367;BME280;6752;52.612;13.630;2023-01-28T06:50:57;102136.03;;;0.24;100.00
13367;BME280;6752;52.612;13.630;2023-01-28T06:56:00;102135.50;;;0.19;100.00
13367;BME280;6752;52.612;13.630;2023-01-28T07:01:02;102136.48;;;0.24;100.00
13367;BME280;6752;52.612;13.630;2023-01-28T07:06:04;102137.44;;;0.29;100.00
13367;BME280;6752;52.612;13.630;2023-01-28T07:11:07;102140.84;;;0.25;100.00
13367;BME280;6752;52.612;13.630;2023-01-28T07:16:09;102141.03;;;0.29;100.00
13367;BME280;6752;52.612;13.630;2023-01-28T07:21:11;102141.53;;;0.34;100.00
13367;BME280;6752;52.612;13.630;2023-01-28T07:26:13;102141.64;;;0.32;100.00
13367;BME280;6752;52.612;13.630;2023-01-28T07:31:16;102140.73;;;0.38;100.00
13367;BME280;6752;52.612;13.630;2023-01-28T07:36:18;102144.27;;;0.39;100.00
13367;BME280;6752;52.612;13.630;2023-01-28T07:41:21;102140.67;;;0.44;100.00
13367;BME280;6752;52.612;13.630;2023-01-28T07:46:23;102140.34;;;0.49;100.00
13367;BME280;6752;52.612;13.630;2023-01-28T07:51:25;102136.81;;;0.54;100.00
13367;BME280;6752;52.612;13.630;2023-01-28T07:56:29;102138.27;;;0.58;100.00
13367;BME280;6752;52.612;13.630;2023-01-28T08:01:30;102132.66;;;0.67;100.00
13367;BME280;6752;52.612;13.630;2023-01-28T08:06:32;102146.59;;;0.72;100.00
13367;BME280;6752;52.612;13.630;2023-01-28T08:11:36;102148.72;;;0.73;100.00
13367;BME280;6752;52.612;13.630;2023-01-28T08:16:37;102159.98;;;0.66;100.00
13367;BME280;6752;52.612;13.630;2023-01-28T08:21:40;102165.87;;;0.77;100.00
13367;BME280;6752;52.612;13.630;2023-01-28T08:26:42;102166.28;;;0.83;100.00
13367;BME280;6752;52.612;13.630;2023-01-28T08:31:44;102170.80;;;0.88;100.00
13367;BME280;6752;52.612;13.630;2023-01-28T08:36:47;102177.28;;;0.97;100.00
13367;BME280;6752;52.612;13.630;2023-01-28T08:41:49;102178.50;;;1.04;100.00
13367;BME280;6752;52.612;13.630;2023-01-28T08:46:51;102174.59;;;1.08;100.00
13367;BME280;6752;52.612;13.630;2023-01-28T08:51:54;102185.86;;;1.18;100.00
13367;BME280;6752;52.612;13.630;2023-01-28T08:56:56;102184.66;;;1.21;100.00
13367;BME280;6752;52.612;13.630;2023-01-28T09:01:59;102194.77;;;1.18;100.00
13367;BME280;6752;52.612;13.630;2023-01-28T09:07:01;102198.70;;;1.25;100.00
13367;BME280;6752;52.612;13.630;2023-01-28T09:12:03;102197.75;;;1.37;100.00
13367;BME280;6752;52.612;13.630;2023-01-28T09:17:06;102208.44;;;1.37;100.00
13367;BME280;6752;52.612;13.630;2023-01-28T09:22:08;102202.81;;;1.52;100.00
13367;BME280;6752;52.612;13.630;2023-01-28T09:27:10;102215.95;;;1.50;100.00
13367;BME280;6752;52.612;13.630;2023-01-28T09:32:13;102219.45;;;1.62;100.00
13367;BME280;6752;52.612;13.630;2023-01-28T09:37:15;102218.62;;;1.67;100.00
13367;BME280;6752;52.612;13.630;2023-01-28T09:47:39;102215.61;;;1.71;100.00
13367;BME280;6752;52.612;13.630;2023-01-28T09:52:40;102221.41;;;1.71;100.00
13367;BME280;6752;52.612;13.630;2023-01-28T09:57:48;102226.11;;;1.74;100.00
13367;BME280;6752;52.612;13.630;2023-01-28T10:08:07;102234.73;;;1.88;100.00
13367;BME280;6752;52.612;13.630;2023-01-28T10:18:12;102224.83;;;1.94;100.00
13367;BME280;6752;52.612;13.630;2023-01-28T10:23:25;102219.50;;;1.99;100.00
13367;BME280;6752;52.612;13.630;2023-01-28T10:28:27;102218.30;;;1.92;100.00
13367;BME280;6752;52.612;13.630;2023-01-28T10:33:35;102209.23;;;2.15;100.00
13367;BME280;6752;52.612;13.630;2023-01-28T10:38:37;102209.62;;;2.47;100.00
13367;BME280;6752;52.612;13.630;2023-01-28T10:43:39;102203.55;;;2.39;100.00
13367;BME280;6752;52.612;13.630;2023-01-28T10:53:58;102207.66;;;2.39;100.00
13367;BME280;6752;52.612;13.630;2023-01-28T10:59:05;102211.45;;;2.57;100.00
13367;BME280;6752;52.612;13.630;2023-01-28T11:04:14;102198.70;;;2.28;98.53
13367;BME280;6752;52.612;13.630;2023-01-28T11:09:23;102206.37;;;2.48;100.00
13367;BME280;6752;52.612;13.630;2023-01-28T11:14:25;102204.67;;;2.31;100.00
13367;BME280;6752;52.612;13.630;2023-01-28T11:19:35;102198.11;;;2.40;99.34
13367;BME280;6752;52.612;13.630;2023-01-28T11:24:40;102195.04;;;2.50;99.85
13367;BME280;6752;52.612;13.630;2023-01-28T11:29:42;102191.05;;;2.44;97.58
13367;BME280;6752;52.612;13.630;2023-01-28T11:34:48;102183.42;;;2.49;97.23
13367;BME280;6752;52.612;13.630;2023-01-28T11:40:15;102186.31;;;2.47;98.14
13367;BME280;6752;52.612;13.630;2023-01-28T11:45:17;102175.72;;;2.76;99.66
13367;BME280;6752;52.612;13.630;2023-01-28T11:55:40;102157.75;;;2.66;96.00
13367;BME280;6752;52.612;13.630;2023-01-28T12:06:02;102172.54;;;2.40;99.75
13367;BME280;6752;52.612;13.630;2023-01-28T12:21:51;102147.52;;;2.49;100.00
13367;BME280;6752;52.612;13.630;2023-01-28T12:42:43;102140.61;;;2.36;100.00
13367;BME280;6752;52.612;13.630;2023-01-28T12:47:47;102145.54;;;2.30;100.00
13367;BME280;6752;52.612;13.630;2023-01-28T12:52:48;102150.47;;;2.25;100.00
13367;BME280;6752;52.612;13.630;2023-01-28T12:57:49;102140.23;;;2.19;100.00
13367;BME280;6752;52.612;13.630;2023-01-28T13:08:12;102126.20;;;2.16;100.00
13367;BME280;6752;52.612;13.630;2023-01-28T13:13:24;102126.72;;;2.41;100.00
13367;BME280;6752;52.612;13.630;2023-01-28T13:18:46;102104.18;;;2.37;100.00
13367;BME280;6752;52.612;13.630;2023-01-28T13:23:46;102111.75;;;2.27;100.00
13367;BME280;6752;52.612;13.630;2023-01-28T13:28:49;102106.91;;;2.21;100.00
13367;BME280;6752;52.612;13.630;2023-01-28T13:39:14;102094.98;;;2.29;100.00
13367;BME280;6752;52.612;13.630;2023-01-28T13:44:26;102098.88;;;2.31;100.00
13367;BME280;6752;52.612;13.630;2023-01-28T13:49:36;102101.00;;;2.17;100.00
13367;BME280;6752;52.612;13.630;2023-01-28T13:54:40;102105.91;;;2.22;100.00
13367;BME280;6752;52.612;13.630;2023-01-28T14:05:48;102088.63;;;2.35;100.00
13367;BME280;6752;52.612;13.630;2023-01-28T14:16:21;102070.48;;;2.32;97.46
13367;BME280;6752;52.612;13.630;2023-01-28T14:21:24;102072.69;;;2.43;100.00
13367;BME280;6752;52.612;13.630;2023-01-28T14:26:49;102075.98;;;2.52;100.00
13367;BME280;6752;52.612;13.630;2023-01-28T14:31:48;102073.09;;;2.59;98.14
13367;BME280;6752;52.612;13.630;2023-01-28T14:37:10;102095.05;;;2.54;100.00
13367;BME280;6752;52.612;13.630;2023-01-28T14:42:19;102096.52;;;2.27;94.27
13367;BME280;6752;52.612;13.630;2023-01-28T14:47:27;102098.81;;;2.11;93.24
13367;BME280;6752;52.612;13.630;2023-01-28T14:57:39;102102.98;;;2.09;99.52
13367;BME280;6752;52.612;13.630;2023-01-28T15:02:41;102099.98;;;1.87;94.58
13367;BME280;6752;52.612;13.630;2023-01-28T15:07:47;102092.69;;;2.04;93.69
13367;BME280;6752;52.612;13.630;2023-01-28T15:12:51;102099.79;;;1.78;95.95
13367;BME280;6752;52.612;13.630;2023-01-28T15:17:53;102102.97;;;1.78;98.70
13367;BME280;6752;52.612;13.630;2023-01-28T15:22:55;102097.26;;;1.71;100.00
13367;BME280;6752;52.612;13.630;2023-01-28T15:27:58;102099.72;;;1.69;97.81
13367;BME280;6752;52.612;13.630;2023-01-28T15:33:03;102096.30;;;1.61;96.60
13367;BME280;6752;52.612;13.630;2023-01-28T15:38:05;102096.36;;;1.50;91.44
13367;BME280;6752;52.612;13.630;2023-01-28T15:43:17;102088.43;;;1.48;89.45
13367;BME280;6752;52.612;13.630;2023-01-28T15:48:15;102100.64;;;1.41;90.92
13367;BME280;6752;52.612;13.630;2023-01-28T15:53:20;102111.89;;;1.46;92.79
13367;BME280;6752;52.612;13.630;2023-01-28T15:58:27;102121.54;;;1.38;97.10
13367;BME280;6752;52.612;13.630;2023-01-28T16:03:28;102124.82;;;1.25;98.92
13367;BME280;6752;52.612;13.630;2023-01-28T16:08:35;102135.21;;;1.40;98.95
13367;BME280;6752;52.612;13.630;2023-01-28T16:13:39;102132.63;;;1.28;100.00
13367;BME280;6752;52.612;13.630;2023-01-28T16:18:48;102130.56;;;1.26;100.00
13367;BME280;6752;52.612;13.630;2023-01-28T16:23:57;102124.41;;;1.19;100.00
13367;BME280;6752;52.612;13.630;2023-01-28T16:28:54;102100.29;;;1.13;100.00
13367;BME280;6752;52.612;13.630;2023-01-28T16:33:59;102111.33;;;1.15;100.00
13367;BME280;6752;52.612;13.630;2023-01-28T16:39:04;102113.89;;;0.95;100.00
13367;BME280;6752;52.612;13.630;2023-01-28T16:44:07;102123.26;;;1.06;97.26
13367;BME280;6752;52.612;13.630;2023-01-28T16:49:08;102139.48;;;0.93;100.00
13367;BME280;6752;52.612;13.630;2023-01-28T16:54:14;102130.34;;;0.90;100.00
13367;BME280;6752;52.612;13.630;2023-01-28T16:59:16;102139.75;;;0.79;100.00
13367;BME280;6752;52.612;13.630;2023-01-28T17:04:37;102150.80;;;0.81;100.00
13367;BME280;6752;52.612;13.630;2023-01-28T17:09:57;102168.36;;;0.85;100.00
13367;BME280;6752;52.612;13.630;2023-01-28T17:15:17;102167.44;;;0.85;100.00
13367;BME280;6752;52.612;13.630;2023-01-28T17:20:38;102164.76;;;0.85;100.00
13367;BME280;6752;52.612;13.630;2023-01-28T17:26:05;102186.36;;;0.84;100.00
13367;BME280;6752;52.612;13.630;2023-01-28T17:31:25;102185.14;;;0.82;100.00
13367;BME280;6752;52.612;13.630;2023-01-28T17:36:46;102189.53;;;0.83;100.00
13367;BME280;6752;52.612;13.630;2023-01-28T17:42:07;102168.67;;;0.75;100.00
13367;BME280;6752;52.612;13.630;2023-01-28T17:47:28;102170.69;;;0.79;100.00
13367;BME280;6752;52.612;13.630;2023-01-28T17:52:52;102181.73;;;0.74;100.00
13367;BME280;6752;52.612;13.630;2023-01-28T17:58:09;102170.34;;;0.65;100.00
13367;BME280;6752;52.612;13.630;2023-01-28T18:03:12;102182.61;;;0.57;100.00
13367;BME280;6752;52.612;13.630;2023-01-28T18:08:33;102181.53;;;0.42;100.00
13367;BME280;6752;52.612;13.630;2023-01-28T18:13:38;102183.45;;;0.52;100.00
13367;BME280;6752;52.612;13.630;2023-01-28T18:18:36;102171.83;;;0.35;100.00
13367;BME280;6752;52.612;13.630;2023-01-28T18:23:41;102161.02;;;0.25;100.00
13367;BME280;6752;52.612;13.630;2023-01-28T18:28:43;102156.17;;;0.23;100.00
13367;BME280;6752;52.612;13.630;2023-01-28T18:33:45;102162.19;;;0.15;100.00
13367;BME280;6752;52.612;13.630;2023-01-28T18:38:47;102169.37;;;0.09;100.00
13367;BME280;6752;52.612;13.630;2023-01-28T18:43:50;102169.54;;;0.01;100.00
13367;BME280;6752;52.612;13.630;2023-01-28T18:48:57;102166.33;;;-0.04;100.00
13367;BME280;6752;52.612;13.630;2023-01-28T18:54:01;102182.77;;;0.03;100.00
13367;BME280;6752;52.612;13.630;2023-01-28T18:59:05;102167.77;;;0.01;100.00
13367;BME280;6752;52.612;13.630;2023-01-28T19:04:06;102166.38;;;0.02;100.00
13367;BME280;6752;52.612;13.630;2023-01-28T19:09:09;102162.72;;;0.03;100.00
13367;BME280;6752;52.612;13.630;2023-01-28T19:14:12;102169.19;;;0.06;100.00
13367;BME280;6752;52.612;13.630;2023-01-28T19:19:15;102171.39;;;0.00;100.00
13367;BME280;6752;52.612;13.630;2023-01-28T19:24:17;102156.39;;;0.09;100.00
13367;BME280;6752;52.612;13.630;2023-01-28T19:29:20;102160.72;;;0.05;100.00
13367;BME280;6752;52.612;13.630;2023-01-28T19:34:22;102165.10;;;0.06;100.00
13367;BME280;6752;52.612;13.630;2023-01-28T19:39:24;102164.25;;;0.06;100.00
13367;BME280;6752;52.612;13.630;2023-01-28T19:44:27;102156.88;;;0.09;100.00
13367;BME280;6752;52.612;13.630;2023-01-28T19:49:28;102174.91;;;0.07;100.00
13367;BME280;6752;52.612;13.630;2023-01-28T19:54:31;102173.64;;;0.11;100.00
13367;BME280;6752;52.612;13.630;2023-01-28T19:59:33;102180.82;;;0.05;100.00
13367;BME280;6752;52.612;13.630;2023-01-28T20:04:36;102184.84;;;0.05;100.00
13367;BME280;6752;52.612;13.630;2023-01-28T20:09:38;102196.30;;;0.07;100.00
13367;BME280;6752;52.612;13.630;2023-01-28T20:14:40;102203.69;;;0.10;100.00
13367;BME280;6752;52.612;13.630;2023-01-28T20:19:43;102190.13;;;0.01;100.00
13367;BME280;6752;52.612;13.630;2023-01-28T20:24:45;102179.16;;;-0.08;100.00
13367;BME280;6752;52.612;13.630;2023-01-28T20:29:50;102181.71;;;-0.12;100.00
13367;BME280;6752;52.612;13.630;2023-01-28T20:34:54;102158.41;;;-0.23;100.00
13367;BME280;6752;52.612;13.630;2023-01-28T20:39:56;102161.59;;;-0.42;100.00
13367;BME280;6752;52.612;13.630;2023-01-28T20:44:58;102174.62;;;-0.43;100.00
13367;BME280;6752;52.612;13.630;2023-01-28T20:50:01;102161.77;;;-0.44;100.00
13367;BME280;6752;52.612;13.630;2023-01-28T20:55:03;102163.05;;;-0.43;100.00
13367;BME280;6752;52.612;13.630;2023-01-28T21:00:06;102163.92;;;-0.37;100.00
13367;BME280;6752;52.612;13.630;2023-01-28T21:05:08;102144.84;;;-0.51;100.00
13367;BME280;6752;52.612;13.630;2023-01-28T21:10:11;102160.72;;;-0.54;100.00
13367;BME280;6752;52.612;13.630;2023-01-28T21:15:13;102158.02;;;-0.60;100.00
13367;BME280;6752;52.612;13.630;2023-01-28T21:20:16;102146.65;;;-0.69;100.00
13367;BME280;6752;52.612;13.630;2023-01-28T21:25:18;102133.48;;;-0.79;100.00
13367;BME280;6752;52.612;13.630;2023-01-28T21:30:20;102145.73;;;-0.75;100.00
13367;BME280;6752;52.612;13.630;2023-01-28T21:35:24;102137.16;;;-0.74;100.00
13367;BME280;6752;52.612;13.630;2023-01-28T21:40:26;102140.43;;;-0.76;100.00
13367;BME280;6752;52.612;13.630;2023-01-28T21:45:29;102137.59;;;-0.67;100.00
13367;BME280;6752;52.612;13.630;2023-01-28T21:50:34;102141.86;;;-0.65;100.00
13367;BME280;6752;52.612;13.630;2023-01-28T21:55:36;102141.80;;;-0.64;100.00
13367;BME280;6752;52.612;13.630;2023-01-28T22:00:39;102145.11;;;-0.60;100.00
13367;BME280;6752;52.612;13.630;2023-01-28T22:05:41;102131.80;;;-0.68;100.00
13367;BME280;6752;52.612;13.630;2023-01-28T22:10:44;102130.89;;;-0.74;100.00
13367;BME280;6752;52.612;13.630;2023-01-28T22:15:46;102118.41;;;-0.74;100.00
13367;BME280;6752;52.612;13.630;2023-01-28T22:20:55;102112.58;;;-0.73;100.00
13367;BME280;6752;52.612;13.630;2023-01-28T22:25:57;102117.81;;;-0.66;100.00
13367;BME280;6752;52.612;13.630;2023-01-28T22:31:09;102118.10;;;-0.69;100.00
13367;BME280;6752;52.612;13.630;2023-01-28T22:36:16;102130.01;;;-0.62;100.00
13367;BME280;6752;52.612;13.630;2023-01-28T22:41:19;102114.19;;;-0.59;100.00
13367;BME280;6752;52.612;13.630;2023-01-28T22:46:24;102113.95;;;-0.56;100.00
13367;BME280;6752;52.612;13.630;2023-01-28T22:51:27;102101.16;;;-0.58;100.00
13367;BME280;6752;52.612;13.630;2023-01-28T22:56:31;102105.15;;;-0.52;100.00
13367;BME280;6752;52.612;13.630;2023-01-28T23:01:34;102106.79;;;-0.43;100.00
13367;BME280;6752;52.612;13.630;2023-01-28T23:06:36;102095.05;;;-0.42;100.00
13367;BME280;6752;52.612;13.630;2023-01-28T23:11:39;102095.31;;;-0.34;100.00
13367;BME280;6752;52.612;13.630;2023-01-28T23:16:41;102080.20;;;-0.35;100.00
13367;BME280;6752;52.612;13.630;2023-01-28T23:22:01;102077.41;;;-0.33;100.00
13367;BME280;6752;52.612;13.630;2023-01-28T23:27:22;102081.68;;;-0.31;100.00
13367;BME280;6752;52.612;13.630;2023-01-28T23:32:25;102066.39;;;-0.29;100.00
13367;BME280;6752;52.612;13.630;2023-01-28T23:37:27;102055.13;;;-0.28;100.00
13367;BME280;6752;52.612;13.630;2023-01-28T23:42:29;102056.58;;;-0.18;100.00
13367;BME280;6752;52.612;13.630;2023-01-28T23:47:32;102052.52;;;-0.11;100.00
13367;BME280;6752;52.612;13.630;2023-01-28T23:52:34;102043.86;;;-0.09;100.00
13367;BME280;6752;52.612;13.630;2023-01-28T23:57:37;102021.99;;;-0.09;100.00
